VRG1424 SBNT-SBGL
Flight info
| Callsign | VRG1424 |
|---|---|
| Flight time | 2h 42m |
| Altitude | 34000 |
| Route | EDVEG UZ11 MUDSI UN857 MOLSU |
| Aircraft | MD11/H-SDE1E2E3FGHIJ2J3J4J5M1RWXY/LB1D1 |
Departure
| Time | 2026-05-04 11:50 |
|---|---|
| Airport | Natal Air Force Base (SBNT) |
Arrival
| Time | 2026-05-04 14:33 |
|---|---|
| Airport | Rio Galeão – Tom Jobim International Airport (SBGL) |
| Time | Latitude | Longitude | Altitude | Speed | Heading |
|---|---|---|---|---|---|
| 2026-05-04 11:38 | -5.89922 | -35.24992 | 176 ft | 0 kts | 27° |
| 2026-05-04 11:44 | -5.89926 | -35.24994 | 176 ft | 3 kts | 30° |
| 2026-05-04 11:44 | -5.89944 | -35.25008 | 176 ft | 4 kts | 65° |
| 2026-05-04 11:45 | -5.89949 | -35.25030 | 176 ft | 4 kts | 99° |
| 2026-05-04 11:45 | -5.89943 | -35.25056 | 176 ft | 4 kts | 98° |
| 2026-05-04 11:45 | -5.89943 | -35.25057 | 176 ft | 0 kts | 98° |
| 2026-05-04 11:48 | -5.89947 | -35.25046 | 176 ft | 5 kts | 109° |
| 2026-05-04 11:48 | -5.89980 | -35.25003 | 176 ft | 9 kts | 136° |
| 2026-05-04 11:48 | -5.90033 | -35.24973 | 176 ft | 10 kts | 176° |
| 2026-05-04 11:48 | -5.90094 | -35.25020 | 177 ft | 14 kts | 239° |
| 2026-05-04 11:49 | -5.90161 | -35.25116 | 179 ft | 18 kts | 237° |
| 2026-05-04 11:49 | -5.90205 | -35.25152 | 179 ft | 2 kts | 175° |
| 2026-05-04 11:49 | -5.90210 | -35.25147 | 179 ft | 2 kts | 144° |
| 2026-05-04 11:49 | -5.90211 | -35.25146 | 179 ft | 0 kts | 140° |
| 2026-05-04 11:50 | -5.90324 | -35.25052 | 178 ft | 63 kts | 141° |
| 2026-05-04 11:50 | -5.90888 | -35.24592 | 169 ft | 142 kts | 141° |
| 2026-05-04 11:50 | -5.91770 | -35.23853 | 365 ft | 175 kts | 141° |
| 2026-05-04 11:50 | -5.92648 | -35.23124 | 1391 ft | 158 kts | 144° |
| 2026-05-04 11:51 | -5.93538 | -35.22437 | 2218 ft | 161 kts | 145° |
| 2026-05-04 11:51 | -5.94494 | -35.21828 | 2960 ft | 165 kts | 159° |
| 2026-05-04 11:51 | -5.95609 | -35.21469 | 3567 ft | 180 kts | 163° |
| 2026-05-04 11:51 | -5.96913 | -35.21094 | 3781 ft | 207 kts | 162° |
| 2026-05-04 11:52 | -5.98392 | -35.20672 | 3910 ft | 232 kts | 163° |
| 2026-05-04 11:52 | -5.99994 | -35.20218 | 4043 ft | 245 kts | 163° |
| 2026-05-04 11:52 | -6.01670 | -35.19749 | 4194 ft | 254 kts | 163° |
| 2026-05-04 11:52 | -6.03358 | -35.19278 | 4681 ft | 255 kts | 163° |
| 2026-05-04 11:53 | -6.05073 | -35.18801 | 5446 ft | 257 kts | 163° |
| 2026-05-04 11:53 | -6.06818 | -35.18317 | 6196 ft | 262 kts | 162° |
| 2026-05-04 11:53 | -6.08585 | -35.17827 | 6955 ft | 265 kts | 162° |
| 2026-05-04 11:53 | -6.10390 | -35.17326 | 7631 ft | 272 kts | 162° |
| 2026-05-04 11:55 | -6.24800 | -35.13323 | 10924 ft | 365 kts | 161° |
| 2026-05-04 11:55 | -6.27262 | -35.12632 | 11603 ft | 370 kts | 160° |
| 2026-05-04 11:56 | -6.29730 | -35.11841 | 12293 ft | 375 kts | 159° |
| 2026-05-04 11:56 | -6.32214 | -35.10981 | 12992 ft | 380 kts | 158° |
| 2026-05-04 11:56 | -6.34688 | -35.10103 | 13669 ft | 384 kts | 158° |
| 2026-05-04 11:56 | -6.37227 | -35.09194 | 14293 ft | 389 kts | 158° |
| 2026-05-04 11:57 | -6.39792 | -35.08279 | 14908 ft | 393 kts | 158° |
| 2026-05-04 11:57 | -6.42379 | -35.07358 | 15522 ft | 397 kts | 158° |
| 2026-05-04 11:57 | -6.44998 | -35.06428 | 16140 ft | 400 kts | 159° |
| 2026-05-04 11:57 | -6.47640 | -35.05492 | 16734 ft | 404 kts | 158° |
| 2026-05-04 11:58 | -6.50304 | -35.04548 | 17313 ft | 408 kts | 159° |
| 2026-05-04 11:58 | -6.52995 | -35.03594 | 17914 ft | 412 kts | 159° |
| 2026-05-04 11:58 | -6.55713 | -35.02632 | 18462 ft | 416 kts | 158° |
| 2026-05-04 11:58 | -6.58459 | -35.01660 | 18976 ft | 419 kts | 158° |
| 2026-05-04 11:59 | -6.61217 | -35.00683 | 19500 ft | 422 kts | 158° |
| 2026-05-04 11:59 | -6.63965 | -34.99709 | 19998 ft | 425 kts | 159° |
| 2026-05-04 11:59 | -6.66767 | -34.98716 | 20515 ft | 428 kts | 159° |
| 2026-05-04 11:59 | -6.69591 | -34.97715 | 21013 ft | 431 kts | 158° |
| 2026-05-04 12:00 | -6.72433 | -34.96708 | 21510 ft | 435 kts | 158° |
| 2026-05-04 12:00 | -6.75293 | -34.95694 | 22008 ft | 438 kts | 158° |
| 2026-05-04 12:00 | -6.78178 | -34.94671 | 22509 ft | 441 kts | 158° |
| 2026-05-04 12:00 | -6.81082 | -34.93641 | 22984 ft | 444 kts | 158° |
| 2026-05-04 12:01 | -6.84009 | -34.92603 | 23470 ft | 447 kts | 158° |
| 2026-05-04 12:01 | -6.86954 | -34.91559 | 23896 ft | 450 kts | 158° |
| 2026-05-04 12:02 | -7.05624 | -34.88998 | 26411 ft | 467 kts | 183° |
| 2026-05-04 12:03 | -7.08879 | -34.89194 | 26841 ft | 468 kts | 182° |
| 2026-05-04 12:03 | -7.12136 | -34.89364 | 27242 ft | 470 kts | 182° |
| 2026-05-04 12:03 | -7.15411 | -34.89506 | 27630 ft | 471 kts | 182° |
| 2026-05-04 12:03 | -7.17586 | -34.89588 | 27883 ft | 473 kts | 182° |
| 2026-05-04 12:04 | -7.20887 | -34.89703 | 28244 ft | 475 kts | 182° |
| 2026-05-04 12:04 | -7.24191 | -34.89811 | 28714 ft | 475 kts | 183° |
| 2026-05-04 12:04 | -7.27507 | -34.89918 | 28997 ft | 478 kts | 183° |
| 2026-05-04 12:04 | -7.30844 | -34.90026 | 29288 ft | 481 kts | 183° |
| 2026-05-04 12:05 | -7.34201 | -34.90134 | 29672 ft | 483 kts | 183° |
| 2026-05-04 12:05 | -7.37567 | -34.90244 | 30053 ft | 485 kts | 184° |
| 2026-05-04 12:05 | -7.40909 | -34.90354 | 30377 ft | 487 kts | 184° |
| 2026-05-04 12:05 | -7.44306 | -34.90465 | 30803 ft | 487 kts | 184° |
| 2026-05-04 12:06 | -7.47685 | -34.90576 | 31230 ft | 486 kts | 184° |
| 2026-05-04 12:06 | -7.51063 | -34.90687 | 31657 ft | 485 kts | 184° |
| 2026-05-04 12:06 | -7.54429 | -34.90797 | 32081 ft | 483 kts | 184° |
| 2026-05-04 12:06 | -7.57785 | -34.90908 | 32497 ft | 482 kts | 184° |
| 2026-05-04 12:07 | -7.61137 | -34.91018 | 32871 ft | 482 kts | 185° |
| 2026-05-04 12:07 | -7.64485 | -34.91128 | 33248 ft | 481 kts | 185° |
| 2026-05-04 12:07 | -7.67826 | -34.91239 | 33624 ft | 480 kts | 185° |
| 2026-05-04 12:07 | -7.71159 | -34.91348 | 33931 ft | 480 kts | 185° |
| 2026-05-04 12:08 | -7.77848 | -34.91570 | 34032 ft | 480 kts | 185° |
| 2026-05-04 12:08 | -7.84522 | -34.91790 | 34038 ft | 479 kts | 185° |
| 2026-05-04 12:09 | -7.91188 | -34.92010 | 34036 ft | 479 kts | 185° |
| 2026-05-04 12:09 | -7.97816 | -34.92229 | 34033 ft | 480 kts | 185° |
| 2026-05-04 12:10 | -8.04493 | -34.92449 | 34030 ft | 479 kts | 185° |
| 2026-05-04 12:10 | -8.11164 | -34.92669 | 34031 ft | 479 kts | 185° |
| 2026-05-04 12:11 | -8.17817 | -34.93078 | 34031 ft | 479 kts | 188° |
| 2026-05-04 12:11 | -8.24442 | -34.93826 | 34032 ft | 478 kts | 189° |
| 2026-05-04 12:12 | -8.31060 | -34.94620 | 34036 ft | 478 kts | 189° |
| 2026-05-04 12:12 | -8.37633 | -34.95384 | 34040 ft | 478 kts | 189° |
| 2026-05-04 12:14 | -8.64171 | -34.98402 | 34052 ft | 480 kts | 189° |
| 2026-05-04 12:15 | -8.70810 | -34.99158 | 34052 ft | 480 kts | 189° |
| 2026-05-04 12:15 | -8.77442 | -34.99913 | 34052 ft | 480 kts | 189° |
| 2026-05-04 12:16 | -8.84090 | -35.00671 | 34050 ft | 481 kts | 189° |
| 2026-05-04 12:16 | -8.90707 | -35.01425 | 34050 ft | 481 kts | 189° |
| 2026-05-04 12:17 | -8.97351 | -35.02182 | 34050 ft | 481 kts | 189° |
| 2026-05-04 12:17 | -9.03999 | -35.02955 | 34050 ft | 480 kts | 191° |
| 2026-05-04 12:18 | -9.10313 | -35.04880 | 34059 ft | 472 kts | 210° |
| 2026-05-04 12:18 | -9.15951 | -35.08236 | 34058 ft | 470 kts | 215° |
| 2026-05-04 12:19 | -9.21477 | -35.11721 | 34056 ft | 471 kts | 214° |
| 2026-05-04 12:19 | -9.27119 | -35.15102 | 34058 ft | 471 kts | 213° |
| 2026-05-04 12:20 | -9.32798 | -35.18417 | 34062 ft | 471 kts | 212° |
| 2026-05-04 12:20 | -9.38493 | -35.21726 | 34060 ft | 471 kts | 212° |
| 2026-05-04 12:21 | -9.44183 | -35.25037 | 34058 ft | 471 kts | 212° |
| 2026-05-04 12:21 | -9.49833 | -35.28330 | 34060 ft | 471 kts | 212° |
| 2026-05-04 12:22 | -9.55504 | -35.31638 | 34060 ft | 471 kts | 212° |
| 2026-05-04 12:22 | -9.61186 | -35.34953 | 34067 ft | 471 kts | 212° |
| 2026-05-04 12:23 | -9.66869 | -35.38270 | 34066 ft | 470 kts | 212° |
| 2026-05-04 12:23 | -9.72538 | -35.41580 | 34066 ft | 470 kts | 212° |
| 2026-05-04 12:24 | -9.78220 | -35.44899 | 34066 ft | 470 kts | 212° |
| 2026-05-04 12:24 | -9.83889 | -35.48214 | 34068 ft | 470 kts | 212° |
| 2026-05-04 12:25 | -9.89523 | -35.51511 | 34070 ft | 471 kts | 212° |
| 2026-05-04 12:25 | -9.95209 | -35.54837 | 34069 ft | 472 kts | 212° |
| 2026-05-04 12:26 | -10.00902 | -35.58167 | 34068 ft | 471 kts | 212° |
| 2026-05-04 12:26 | -10.06587 | -35.61495 | 34069 ft | 471 kts | 212° |
| 2026-05-04 12:27 | -10.12270 | -35.64822 | 34071 ft | 472 kts | 212° |
| 2026-05-04 12:27 | -10.17956 | -35.68153 | 34071 ft | 472 kts | 212° |
| 2026-05-04 12:28 | -10.23611 | -35.71467 | 34069 ft | 472 kts | 212° |
| 2026-05-04 12:28 | -10.29296 | -35.74800 | 34069 ft | 472 kts | 212° |
| 2026-05-04 12:29 | -10.34981 | -35.78134 | 34074 ft | 471 kts | 212° |
| 2026-05-04 12:29 | -10.40665 | -35.81462 | 34074 ft | 471 kts | 212° |
| 2026-05-04 12:30 | -10.46357 | -35.84784 | 34077 ft | 472 kts | 212° |
| 2026-05-04 12:30 | -10.52046 | -35.88102 | 34077 ft | 472 kts | 212° |
| 2026-05-04 12:31 | -10.57740 | -35.91425 | 34074 ft | 472 kts | 212° |
| 2026-05-04 12:31 | -10.63436 | -35.94751 | 34074 ft | 472 kts | 212° |
| 2026-05-04 12:32 | -10.71969 | -35.99737 | 34077 ft | 472 kts | 211° |
| 2026-05-04 12:33 | -10.77638 | -36.03051 | 34083 ft | 473 kts | 211° |
| 2026-05-04 12:33 | -10.83342 | -36.06386 | 34082 ft | 472 kts | 211° |
| 2026-05-04 12:34 | -10.89036 | -36.09718 | 34081 ft | 472 kts | 211° |
| 2026-05-04 12:34 | -10.94737 | -36.13055 | 34082 ft | 473 kts | 211° |
| 2026-05-04 12:35 | -11.00444 | -36.16398 | 34083 ft | 473 kts | 211° |
| 2026-05-04 12:35 | -11.06157 | -36.19745 | 34083 ft | 474 kts | 211° |
| 2026-05-04 12:36 | -11.11874 | -36.23090 | 34082 ft | 474 kts | 210° |
| 2026-05-04 12:36 | -11.17694 | -36.26256 | 34085 ft | 474 kts | 208° |
| 2026-05-04 12:37 | -11.23570 | -36.29313 | 34083 ft | 474 kts | 208° |
| 2026-05-04 12:37 | -11.29452 | -36.32373 | 34085 ft | 475 kts | 208° |
| 2026-05-04 12:38 | -11.35304 | -36.35434 | 34085 ft | 475 kts | 208° |
| 2026-05-04 12:38 | -11.41196 | -36.38525 | 34088 ft | 475 kts | 208° |
| 2026-05-04 12:39 | -11.47047 | -36.41595 | 34085 ft | 475 kts | 208° |
| 2026-05-04 12:39 | -11.52931 | -36.44684 | 34088 ft | 475 kts | 208° |
| 2026-05-04 12:40 | -11.58816 | -36.47775 | 34093 ft | 475 kts | 208° |
| 2026-05-04 12:40 | -11.64696 | -36.50865 | 34093 ft | 476 kts | 208° |
| 2026-05-04 12:41 | -11.70581 | -36.53958 | 34092 ft | 476 kts | 208° |
| 2026-05-04 12:41 | -11.76463 | -36.57052 | 34096 ft | 475 kts | 208° |
| 2026-05-04 12:42 | -11.82345 | -36.60147 | 34093 ft | 476 kts | 208° |
| 2026-05-04 12:42 | -11.88199 | -36.63230 | 34096 ft | 476 kts | 208° |
| 2026-05-04 12:43 | -11.94088 | -36.66337 | 34096 ft | 476 kts | 208° |
| 2026-05-04 12:43 | -11.99985 | -36.69446 | 34096 ft | 476 kts | 208° |
| 2026-05-04 12:44 | -12.05879 | -36.72554 | 34099 ft | 476 kts | 208° |
| 2026-05-04 12:44 | -12.11765 | -36.75658 | 34098 ft | 476 kts | 208° |
| 2026-05-04 12:45 | -12.17650 | -36.78764 | 34101 ft | 476 kts | 208° |
| 2026-05-04 12:45 | -12.23528 | -36.81868 | 34102 ft | 476 kts | 208° |
| 2026-05-04 12:46 | -12.29407 | -36.84974 | 34103 ft | 476 kts | 208° |
| 2026-05-04 12:46 | -12.35287 | -36.88083 | 34102 ft | 476 kts | 208° |
| 2026-05-04 12:47 | -12.41166 | -36.91195 | 34102 ft | 476 kts | 208° |
| 2026-05-04 12:47 | -12.47009 | -36.94287 | 34102 ft | 476 kts | 208° |
| 2026-05-04 12:48 | -12.52885 | -36.97398 | 34108 ft | 476 kts | 208° |
| 2026-05-04 12:48 | -12.58766 | -37.00513 | 34107 ft | 475 kts | 208° |
| 2026-05-04 12:49 | -12.64637 | -37.03624 | 34105 ft | 474 kts | 208° |
| 2026-05-04 12:49 | -12.70489 | -37.06727 | 34102 ft | 474 kts | 208° |
| 2026-05-04 12:50 | -12.76344 | -37.09833 | 34106 ft | 474 kts | 208° |
| 2026-05-04 12:50 | -12.82203 | -37.12942 | 34110 ft | 474 kts | 208° |
| 2026-05-04 12:51 | -12.88064 | -37.16055 | 34109 ft | 474 kts | 208° |
| 2026-05-04 12:51 | -12.93885 | -37.19148 | 34110 ft | 473 kts | 208° |
| 2026-05-04 12:52 | -12.99737 | -37.22258 | 34110 ft | 473 kts | 208° |
| 2026-05-04 12:52 | -13.04597 | -37.24844 | 34108 ft | 473 kts | 208° |
| 2026-05-04 12:53 | -13.10427 | -37.27949 | 34113 ft | 472 kts | 208° |
| 2026-05-04 12:53 | -13.16259 | -37.31058 | 34113 ft | 471 kts | 208° |
| 2026-05-04 12:54 | -13.22072 | -37.34156 | 34112 ft | 470 kts | 208° |
| 2026-05-04 12:54 | -13.27883 | -37.37253 | 34110 ft | 470 kts | 208° |
| 2026-05-04 12:55 | -13.33701 | -37.40356 | 34114 ft | 471 kts | 208° |
| 2026-05-04 12:55 | -13.39480 | -37.43440 | 34119 ft | 470 kts | 208° |
| 2026-05-04 12:56 | -13.45289 | -37.46540 | 34114 ft | 469 kts | 208° |
| 2026-05-04 12:56 | -13.51081 | -37.49634 | 34115 ft | 468 kts | 208° |
| 2026-05-04 12:57 | -13.56855 | -37.52720 | 34119 ft | 467 kts | 208° |
| 2026-05-04 12:57 | -13.62626 | -37.55807 | 34118 ft | 468 kts | 208° |
| 2026-05-04 12:58 | -13.68398 | -37.58895 | 34115 ft | 468 kts | 208° |
| 2026-05-04 12:58 | -13.74155 | -37.61977 | 34116 ft | 468 kts | 208° |
| 2026-05-04 12:59 | -13.79937 | -37.65074 | 34120 ft | 468 kts | 208° |
| 2026-05-04 12:59 | -13.85722 | -37.68177 | 34123 ft | 468 kts | 208° |
| 2026-05-04 13:00 | -13.91496 | -37.71278 | 34124 ft | 468 kts | 208° |
| 2026-05-04 13:00 | -13.97244 | -37.74363 | 34125 ft | 468 kts | 208° |
| 2026-05-04 13:01 | -14.03014 | -37.77461 | 34127 ft | 468 kts | 208° |
| 2026-05-04 13:01 | -14.08793 | -37.80566 | 34124 ft | 468 kts | 208° |
| 2026-05-04 13:02 | -14.14568 | -37.83669 | 34124 ft | 468 kts | 208° |
| 2026-05-04 13:02 | -14.20340 | -37.86773 | 34125 ft | 468 kts | 208° |
| 2026-05-04 13:03 | -14.26118 | -37.89882 | 34123 ft | 468 kts | 208° |
| 2026-05-04 13:03 | -14.31906 | -37.92999 | 34126 ft | 468 kts | 208° |
| 2026-05-04 13:04 | -14.37643 | -37.96090 | 34128 ft | 468 kts | 208° |
| 2026-05-04 13:04 | -14.43421 | -37.99204 | 34126 ft | 468 kts | 208° |
| 2026-05-04 13:05 | -14.49199 | -38.02320 | 34123 ft | 469 kts | 209° |
| 2026-05-04 13:05 | -14.54994 | -38.05448 | 34126 ft | 469 kts | 209° |
| 2026-05-04 13:06 | -14.60779 | -38.08576 | 34128 ft | 469 kts | 209° |
| 2026-05-04 13:06 | -14.66563 | -38.11706 | 34131 ft | 469 kts | 209° |
| 2026-05-04 13:07 | -14.72311 | -38.14814 | 34133 ft | 469 kts | 209° |
| 2026-05-04 13:07 | -14.78101 | -38.17947 | 34129 ft | 469 kts | 209° |
| 2026-05-04 13:08 | -14.83889 | -38.21080 | 34130 ft | 469 kts | 209° |
| 2026-05-04 13:08 | -14.89673 | -38.24213 | 34134 ft | 469 kts | 209° |
| 2026-05-04 13:09 | -14.95463 | -38.27351 | 34135 ft | 469 kts | 209° |
| 2026-05-04 13:09 | -15.01258 | -38.30494 | 34137 ft | 469 kts | 209° |
| 2026-05-04 13:10 | -15.07038 | -38.33634 | 34137 ft | 469 kts | 209° |
| 2026-05-04 13:10 | -15.12818 | -38.36775 | 34134 ft | 469 kts | 209° |
| 2026-05-04 13:11 | -15.18566 | -38.39899 | 34140 ft | 469 kts | 209° |
| 2026-05-04 13:11 | -15.24364 | -38.43052 | 34141 ft | 470 kts | 209° |
| 2026-05-04 13:12 | -15.30146 | -38.46198 | 34144 ft | 469 kts | 209° |
| 2026-05-04 13:12 | -15.35940 | -38.49353 | 34145 ft | 469 kts | 209° |
| 2026-05-04 13:13 | -15.41681 | -38.52481 | 34142 ft | 469 kts | 209° |
| 2026-05-04 13:13 | -15.47461 | -38.55632 | 34147 ft | 470 kts | 210° |
| 2026-05-04 13:14 | -15.53246 | -38.58787 | 34151 ft | 470 kts | 210° |
| 2026-05-04 13:14 | -15.59040 | -38.61950 | 34148 ft | 470 kts | 210° |
| 2026-05-04 13:15 | -15.64830 | -38.65113 | 34148 ft | 470 kts | 210° |
| 2026-05-04 13:15 | -15.70618 | -38.68277 | 34153 ft | 470 kts | 210° |
| 2026-05-04 13:16 | -15.76399 | -38.71440 | 34153 ft | 470 kts | 210° |
| 2026-05-04 13:16 | -15.82182 | -38.74611 | 34149 ft | 470 kts | 210° |
| 2026-05-04 13:17 | -15.87930 | -38.77762 | 34148 ft | 470 kts | 210° |
| 2026-05-04 13:17 | -15.93722 | -38.80937 | 34154 ft | 470 kts | 210° |
| 2026-05-04 13:18 | -15.99516 | -38.84114 | 34153 ft | 470 kts | 210° |
| 2026-05-04 13:18 | -16.05292 | -38.87283 | 34156 ft | 469 kts | 210° |
| 2026-05-04 13:19 | -16.11035 | -38.90437 | 34159 ft | 469 kts | 210° |
| 2026-05-04 13:19 | -16.16813 | -38.93611 | 34159 ft | 470 kts | 210° |
| 2026-05-04 13:20 | -16.22591 | -38.96785 | 34169 ft | 469 kts | 210° |
| 2026-05-04 13:20 | -16.28394 | -38.99895 | 34166 ft | 469 kts | 210° |
| 2026-05-04 13:21 | -16.34206 | -39.02969 | 34162 ft | 469 kts | 209° |
| 2026-05-04 13:21 | -16.40027 | -39.06048 | 34165 ft | 469 kts | 209° |
| 2026-05-04 13:22 | -16.45832 | -39.09167 | 34177 ft | 468 kts | 211° |
| 2026-05-04 13:22 | -16.51553 | -39.12366 | 34161 ft | 466 kts | 211° |
| 2026-05-04 13:23 | -16.57244 | -39.15576 | 34163 ft | 465 kts | 211° |
| 2026-05-04 13:23 | -16.62950 | -39.18789 | 34163 ft | 466 kts | 211° |
| 2026-05-04 13:24 | -16.68657 | -39.21997 | 34173 ft | 465 kts | 211° |
| 2026-05-04 13:24 | -16.74311 | -39.25177 | 34175 ft | 464 kts | 211° |
| 2026-05-04 13:25 | -16.82865 | -39.29992 | 34174 ft | 465 kts | 211° |
| 2026-05-04 13:25 | -16.88552 | -39.33197 | 34180 ft | 464 kts | 211° |
| 2026-05-04 13:26 | -16.94243 | -39.36406 | 34184 ft | 464 kts | 212° |
| 2026-05-04 13:26 | -16.99930 | -39.39614 | 34180 ft | 463 kts | 212° |
| 2026-05-04 13:27 | -17.05576 | -39.42806 | 34183 ft | 463 kts | 212° |
| 2026-05-04 13:27 | -17.11242 | -39.46012 | 34182 ft | 463 kts | 212° |
| 2026-05-04 13:28 | -17.16912 | -39.49219 | 34193 ft | 463 kts | 212° |
| 2026-05-04 13:28 | -17.22582 | -39.52427 | 34188 ft | 463 kts | 212° |
| 2026-05-04 13:29 | -17.28247 | -39.55634 | 34189 ft | 462 kts | 212° |
| 2026-05-04 13:29 | -17.33901 | -39.58839 | 34190 ft | 462 kts | 212° |
| 2026-05-04 13:30 | -17.39560 | -39.62047 | 34191 ft | 462 kts | 212° |
| 2026-05-04 13:30 | -17.45215 | -39.65256 | 34192 ft | 462 kts | 212° |
| 2026-05-04 13:31 | -17.50832 | -39.68445 | 34197 ft | 462 kts | 212° |
| 2026-05-04 13:31 | -17.56489 | -39.71660 | 34197 ft | 462 kts | 212° |
| 2026-05-04 13:32 | -17.62143 | -39.74875 | 34197 ft | 462 kts | 212° |
| 2026-05-04 13:32 | -17.67803 | -39.78095 | 34204 ft | 462 kts | 213° |
| 2026-05-04 13:33 | -17.73448 | -39.81310 | 34201 ft | 462 kts | 213° |
| 2026-05-04 13:33 | -17.79093 | -39.84531 | 34202 ft | 462 kts | 213° |
| 2026-05-04 13:34 | -17.84705 | -39.87738 | 34203 ft | 461 kts | 213° |
| 2026-05-04 13:34 | -17.90359 | -39.90966 | 34201 ft | 462 kts | 213° |
| 2026-05-04 13:35 | -17.98812 | -39.95795 | 34204 ft | 461 kts | 213° |
| 2026-05-04 13:36 | -18.04464 | -39.99013 | 34204 ft | 461 kts | 213° |
| 2026-05-04 13:36 | -18.10115 | -40.02218 | 34209 ft | 461 kts | 213° |
| 2026-05-04 13:37 | -18.15767 | -40.05424 | 34210 ft | 461 kts | 213° |
| 2026-05-04 13:37 | -18.20464 | -40.08091 | 34213 ft | 461 kts | 213° |
| 2026-05-04 13:38 | -18.27046 | -40.11832 | 34212 ft | 461 kts | 213° |
| 2026-05-04 13:38 | -18.32691 | -40.15043 | 34231 ft | 462 kts | 213° |
| 2026-05-04 13:39 | -18.37397 | -40.17721 | 34217 ft | 462 kts | 213° |
| 2026-05-04 13:39 | -18.43059 | -40.20946 | 34215 ft | 462 kts | 213° |
| 2026-05-04 13:40 | -18.48707 | -40.24166 | 34213 ft | 462 kts | 213° |
| 2026-05-04 13:40 | -18.54358 | -40.27390 | 34211 ft | 462 kts | 213° |
| 2026-05-04 13:41 | -18.59977 | -40.30598 | 34213 ft | 462 kts | 214° |
| 2026-05-04 13:41 | -18.65623 | -40.33823 | 34219 ft | 462 kts | 214° |
| 2026-05-04 13:42 | -18.74103 | -40.38674 | 34225 ft | 462 kts | 214° |
| 2026-05-04 13:42 | -18.79755 | -40.41916 | 34224 ft | 462 kts | 214° |
| 2026-05-04 13:43 | -18.85367 | -40.45135 | 34221 ft | 461 kts | 214° |
| 2026-05-04 13:43 | -18.91007 | -40.48370 | 34221 ft | 461 kts | 214° |
| 2026-05-04 13:44 | -18.96646 | -40.51606 | 34221 ft | 461 kts | 214° |
| 2026-05-04 13:44 | -19.02287 | -40.54844 | 34232 ft | 461 kts | 214° |
| 2026-05-04 13:45 | -19.07922 | -40.58082 | 34227 ft | 461 kts | 214° |
| 2026-05-04 13:45 | -19.13559 | -40.61324 | 34227 ft | 461 kts | 214° |
| 2026-05-04 13:46 | -19.19194 | -40.64567 | 34226 ft | 461 kts | 214° |
| 2026-05-04 13:46 | -19.24830 | -40.67813 | 34235 ft | 461 kts | 215° |
| 2026-05-04 13:47 | -19.30457 | -40.71056 | 34224 ft | 460 kts | 215° |
| 2026-05-04 13:47 | -19.36044 | -40.74280 | 34226 ft | 460 kts | 214° |
| 2026-05-04 13:48 | -19.41663 | -40.77524 | 34223 ft | 460 kts | 215° |
| 2026-05-04 13:48 | -19.47281 | -40.80771 | 34241 ft | 460 kts | 215° |
| 2026-05-04 13:49 | -19.52901 | -40.84029 | 34223 ft | 461 kts | 215° |
| 2026-05-04 13:49 | -19.58524 | -40.87289 | 34224 ft | 460 kts | 215° |
| 2026-05-04 13:50 | -19.64151 | -40.90560 | 34226 ft | 461 kts | 215° |
| 2026-05-04 13:50 | -19.69775 | -40.93830 | 34216 ft | 460 kts | 215° |
| 2026-05-04 13:51 | -19.75385 | -40.97094 | 34227 ft | 460 kts | 215° |
| 2026-05-04 13:51 | -19.81009 | -41.00369 | 34230 ft | 460 kts | 215° |
| 2026-05-04 13:52 | -19.89396 | -41.05269 | 34230 ft | 461 kts | 215° |
| 2026-05-04 13:53 | -19.95014 | -41.08569 | 34242 ft | 461 kts | 215° |
| 2026-05-04 13:53 | -20.00627 | -41.11868 | 34248 ft | 460 kts | 215° |
| 2026-05-04 13:54 | -20.09020 | -41.16804 | 34258 ft | 461 kts | 215° |
| 2026-05-04 13:55 | -20.17447 | -41.21767 | 34265 ft | 462 kts | 216° |
| 2026-05-04 13:55 | -20.25882 | -41.26742 | 34273 ft | 462 kts | 216° |
| 2026-05-04 13:56 | -20.31503 | -41.30061 | 34273 ft | 461 kts | 216° |
| 2026-05-04 13:57 | -20.39925 | -41.35035 | 34279 ft | 461 kts | 216° |
| 2026-05-04 13:58 | -20.51096 | -41.41639 | 34274 ft | 460 kts | 216° |
| 2026-05-04 13:58 | -20.59499 | -41.46578 | 34275 ft | 458 kts | 216° |
| 2026-05-04 13:59 | -20.65055 | -41.49842 | 34278 ft | 456 kts | 216° |
| 2026-05-04 14:00 | -20.73396 | -41.54753 | 34279 ft | 456 kts | 216° |
| 2026-05-04 14:00 | -20.81738 | -41.59668 | 34280 ft | 455 kts | 216° |
| 2026-05-04 14:01 | -20.87269 | -41.62929 | 34275 ft | 454 kts | 216° |
| 2026-05-04 14:02 | -20.95553 | -41.67823 | 34277 ft | 456 kts | 216° |
| 2026-05-04 14:02 | -21.01098 | -41.71100 | 34274 ft | 454 kts | 216° |
| 2026-05-04 14:03 | -21.06630 | -41.74373 | 34271 ft | 454 kts | 216° |
| 2026-05-04 14:03 | -21.12165 | -41.77650 | 34261 ft | 454 kts | 216° |
| 2026-05-04 14:04 | -21.20451 | -41.82564 | 34277 ft | 454 kts | 217° |
| 2026-05-04 14:04 | -21.25942 | -41.85831 | 34266 ft | 453 kts | 217° |
| 2026-05-04 14:05 | -21.34224 | -41.90757 | 34260 ft | 454 kts | 217° |
| 2026-05-04 14:06 | -21.39744 | -41.94040 | 34275 ft | 453 kts | 217° |
| 2026-05-04 14:06 | -21.45264 | -41.97325 | 34257 ft | 454 kts | 217° |
| 2026-05-04 14:07 | -21.50781 | -42.00612 | 34250 ft | 453 kts | 216° |
| 2026-05-04 14:07 | -21.56311 | -42.03910 | 34258 ft | 454 kts | 217° |
| 2026-05-04 14:08 | -21.61838 | -42.07207 | 34274 ft | 453 kts | 217° |
| 2026-05-04 14:08 | -21.67311 | -42.10475 | 34258 ft | 452 kts | 217° |
| 2026-05-04 14:09 | -21.75419 | -42.15316 | 33265 ft | 440 kts | 217° |
| 2026-05-04 14:09 | -21.78092 | -42.16918 | 32698 ft | 440 kts | 217° |
| 2026-05-04 14:10 | -21.83431 | -42.20122 | 31625 ft | 438 kts | 217° |
| 2026-05-04 14:10 | -21.86096 | -42.21735 | 31124 ft | 441 kts | 217° |
| 2026-05-04 14:10 | -21.88773 | -42.23365 | 30609 ft | 443 kts | 216° |
| 2026-05-04 14:10 | -21.91462 | -42.25002 | 30055 ft | 445 kts | 216° |
| 2026-05-04 14:11 | -21.94159 | -42.26642 | 29478 ft | 445 kts | 216° |
| 2026-05-04 14:11 | -21.99588 | -42.29943 | 28539 ft | 447 kts | 216° |
| 2026-05-04 14:11 | -22.02250 | -42.31559 | 28310 ft | 444 kts | 216° |
| 2026-05-04 14:12 | -22.07334 | -42.35216 | 28139 ft | 434 kts | 227° |
| 2026-05-04 14:12 | -22.11053 | -42.40176 | 27985 ft | 420 kts | 245° |
| 2026-05-04 14:13 | -22.12227 | -42.43043 | 27927 ft | 416 kts | 253° |
| 2026-05-04 14:13 | -22.13072 | -42.46042 | 27391 ft | 418 kts | 257° |
| 2026-05-04 14:13 | -22.13752 | -42.49029 | 27003 ft | 412 kts | 258° |
| 2026-05-04 14:13 | -22.14400 | -42.52043 | 26624 ft | 412 kts | 258° |
| 2026-05-04 14:14 | -22.15059 | -42.55055 | 26151 ft | 412 kts | 258° |
| 2026-05-04 14:14 | -22.16424 | -42.61025 | 25104 ft | 408 kts | 257° |
| 2026-05-04 14:14 | -22.17123 | -42.63987 | 24562 ft | 406 kts | 257° |
| 2026-05-04 14:15 | -22.18524 | -42.69869 | 23397 ft | 402 kts | 257° |
| 2026-05-04 14:15 | -22.19900 | -42.75634 | 22270 ft | 398 kts | 257° |
| 2026-05-04 14:16 | -22.21270 | -42.81385 | 21194 ft | 394 kts | 257° |
| 2026-05-04 14:16 | -22.21949 | -42.84240 | 20668 ft | 391 kts | 257° |
| 2026-05-04 14:17 | -22.23297 | -42.89917 | 19956 ft | 389 kts | 256° |
| 2026-05-04 14:17 | -22.23968 | -42.92742 | 19602 ft | 388 kts | 256° |
| 2026-05-04 14:17 | -22.25297 | -42.98325 | 19277 ft | 386 kts | 256° |
| 2026-05-04 14:18 | -22.25966 | -43.01136 | 19267 ft | 386 kts | 256° |
| 2026-05-04 14:18 | -22.27286 | -43.06695 | 17744 ft | 376 kts | 256° |
| 2026-05-04 14:19 | -22.28567 | -43.12104 | 15901 ft | 373 kts | 256° |
| 2026-05-04 14:19 | -22.29216 | -43.14843 | 15540 ft | 377 kts | 256° |
| 2026-05-04 14:19 | -22.29864 | -43.17582 | 15168 ft | 377 kts | 256° |
| 2026-05-04 14:19 | -22.30510 | -43.20312 | 14567 ft | 374 kts | 255° |
| 2026-05-04 14:20 | -22.31153 | -43.23031 | 14008 ft | 373 kts | 255° |
| 2026-05-04 14:20 | -22.31792 | -43.25748 | 13366 ft | 371 kts | 256° |
| 2026-05-04 14:20 | -22.32423 | -43.28436 | 12737 ft | 368 kts | 256° |
| 2026-05-04 14:21 | -22.33659 | -43.33711 | 11569 ft | 347 kts | 256° |
| 2026-05-04 14:21 | -22.34224 | -43.36119 | 11207 ft | 315 kts | 257° |
| 2026-05-04 14:21 | -22.34741 | -43.38321 | 10834 ft | 289 kts | 257° |
| 2026-05-04 14:21 | -22.35216 | -43.40348 | 10594 ft | 268 kts | 257° |
| 2026-05-04 14:22 | -22.35671 | -43.42299 | 10657 ft | 273 kts | 257° |
| 2026-05-04 14:22 | -22.36134 | -43.44288 | 10444 ft | 274 kts | 257° |
| 2026-05-04 14:22 | -22.36667 | -43.46262 | 10028 ft | 273 kts | 250° |
| 2026-05-04 14:22 | -22.37623 | -43.48019 | 9583 ft | 273 kts | 230° |
| 2026-05-04 14:23 | -22.40858 | -43.50112 | 8649 ft | 278 kts | 204° |
| 2026-05-04 14:23 | -22.42668 | -43.50864 | 8214 ft | 277 kts | 203° |
| 2026-05-04 14:23 | -22.44461 | -43.51592 | 7846 ft | 273 kts | 202° |
| 2026-05-04 14:24 | -22.46223 | -43.52312 | 7484 ft | 269 kts | 202° |
| 2026-05-04 14:24 | -22.47964 | -43.53028 | 7140 ft | 266 kts | 202° |
| 2026-05-04 14:24 | -22.49656 | -43.53729 | 7010 ft | 256 kts | 203° |
| 2026-05-04 14:24 | -22.51357 | -43.54440 | 7002 ft | 264 kts | 202° |
| 2026-05-04 14:25 | -22.53067 | -43.55155 | 6991 ft | 264 kts | 202° |
| 2026-05-04 14:25 | -22.56032 | -43.55889 | 6857 ft | 270 kts | 177° |
| 2026-05-04 14:25 | -22.57851 | -43.55393 | 6514 ft | 270 kts | 159° |
| 2026-05-04 14:26 | -22.59528 | -43.54551 | 6388 ft | 261 kts | 155° |
| 2026-05-04 14:26 | -22.61160 | -43.53668 | 6390 ft | 265 kts | 154° |
| 2026-05-04 14:26 | -22.63324 | -43.52469 | 6387 ft | 264 kts | 149° |
| 2026-05-04 14:26 | -22.64305 | -43.51634 | 6295 ft | 269 kts | 136° |
| 2026-05-04 14:27 | -22.65915 | -43.49545 | 5217 ft | 275 kts | 125° |
| 2026-05-04 14:27 | -22.67028 | -43.47858 | 4477 ft | 272 kts | 123° |
| 2026-05-04 14:27 | -22.67728 | -43.46768 | 4518 ft | 248 kts | 122° |
| 2026-05-04 14:27 | -22.68658 | -43.45246 | 4210 ft | 242 kts | 121° |
| 2026-05-04 14:28 | -22.69569 | -43.43757 | 3903 ft | 239 kts | 122° |
| 2026-05-04 14:28 | -22.70522 | -43.42291 | 3581 ft | 235 kts | 123° |
| 2026-05-04 14:28 | -22.71432 | -43.40929 | 3250 ft | 211 kts | 124° |
| 2026-05-04 14:28 | -22.72275 | -43.39670 | 3007 ft | 200 kts | 123° |
| 2026-05-04 14:29 | -22.73763 | -43.37454 | 2435 ft | 163 kts | 124° |
| 2026-05-04 14:29 | -22.75054 | -43.35528 | 2052 ft | 157 kts | 123° |
| 2026-05-04 14:30 | -22.75692 | -43.34580 | 1899 ft | 155 kts | 123° |
| 2026-05-04 14:30 | -22.76320 | -43.33644 | 1662 ft | 152 kts | 123° |
| 2026-05-04 14:30 | -22.77568 | -43.31787 | 1277 ft | 154 kts | 123° |
| 2026-05-04 14:31 | -22.78198 | -43.30848 | 1064 ft | 154 kts | 124° |
| 2026-05-04 14:31 | -22.79467 | -43.28978 | 684 ft | 152 kts | 124° |
| 2026-05-04 14:32 | -22.80713 | -43.27148 | 257 ft | 149 kts | 123° |
| 2026-05-04 14:32 | -22.81323 | -43.26241 | 85 ft | 148 kts | 124° |
| 2026-05-04 14:32 | -22.81874 | -43.25419 | 34 ft | 113 kts | 126° |
| 2026-05-04 14:32 | -22.82250 | -43.24849 | 34 ft | 65 kts | 127° |
| 2026-05-04 14:33 | -22.82350 | -43.24648 | 34 ft | 16 kts | 97° |
| 2026-05-04 14:33 | -22.82358 | -43.24544 | 34 ft | 11 kts | 92° |
| 2026-05-04 14:33 | -22.82353 | -43.24471 | 34 ft | 8 kts | 72° |
| 2026-05-04 14:33 | -22.82335 | -43.24436 | 32 ft | 4 kts | 53° |
| 2026-05-04 14:34 | -22.82323 | -43.24417 | 34 ft | 1 kts | 63° |
| 2026-05-04 14:34 | -22.82323 | -43.24414 | 34 ft | 0 kts | 79° |
| 2026-05-04 14:34 | -22.82326 | -43.24409 | 34 ft | 2 kts | 105° |
| 2026-05-04 14:34 | -22.82357 | -43.24389 | 34 ft | 13 kts | 144° |
| 2026-05-04 14:35 | -22.82423 | -43.24306 | 34 ft | 14 kts | 129° |
| 2026-05-04 14:35 | -22.82482 | -43.24223 | 34 ft | 13 kts | 125° |
| 2026-05-04 14:35 | -22.82533 | -43.24176 | 34 ft | 7 kts | 165° |
| 2026-05-04 14:35 | -22.82592 | -43.24198 | 33 ft | 12 kts | 217° |
| 2026-05-04 14:36 | -22.82691 | -43.24221 | 32 ft | 19 kts | 167° |
| 2026-05-04 14:36 | -22.82809 | -43.24176 | 34 ft | 16 kts | 171° |
| 2026-05-04 14:36 | -22.82852 | -43.24220 | 34 ft | 10 kts | 267° |
| 2026-05-04 14:36 | -22.82899 | -43.24281 | 34 ft | 12 kts | 215° |
| 2026-05-04 14:37 | -22.82922 | -43.24301 | 34 ft | 0 kts | 218° |